Time;durP1;ratioP1;P1;durP2;ratioP2;P2;SDS_P1;SDS_P2;PMS_P1;PMS_P2;Temp;Humidity;BMP_temperature;BMP_pressure;BME280_temperature;BME280_humidity;BME280_pressure;Samples;Min_cycle;Max_cycle;Signal;HPM_P1;HPM_P2
2022/03/27 00:02:15;;;;;;;14.40;9.80;;;;;;;18.39;30.36;99358.88;5089409;28;20038;-80
2022/03/27 00:04:41;;;;;;;15.18;10.18;;;;;;;17.66;31.43;99360.78;5092038;28;20027;-80
2022/03/27 00:07:08;;;;;;;12.15;8.15;;;;;;;19.55;28.28;99370.72;5093558;28;20024;-80
2022/03/27 00:09:34;;;;;;;13.38;8.23;;;;;;;18.82;28.91;99362.56;5090180;28;20031;-80
2022/03/27 00:12:00;;;;;;;11.98;7.93;;;;;;;20.34;27.10;99365.97;5091159;28;20069;-80
2022/03/27 00:14:26;;;;;;;11.68;7.45;;;;;;;20.12;26.91;99364.06;5076625;28;20056;-80
2022/03/27 00:16:52;;;;;;;10.30;6.95;;;;;;;22.07;24.32;99357.44;5091473;28;20190;-80
2022/03/27 00:19:19;;;;;;;11.85;7.15;;;;;;;21.79;24.27;99360.81;5092369;28;20038;-79
2022/03/27 00:21:45;;;;;;;12.63;6.07;;;;;;;23.79;21.79;99362.81;5091872;28;20027;-80
2022/03/27 00:24:11;;;;;;;12.57;6.93;;;;;;;23.57;21.84;99364.00;5095217;28;20024;-80
2022/03/27 00:26:37;;;;;;;11.27;6.43;;;;;;;23.20;22.04;99366.31;5089465;28;20483;-80
2022/03/27 00:29:04;;;;;;;7.82;5.28;;;;;;;22.95;22.26;99376.66;5094115;28;20039;-80
2022/03/27 00:31:35;;;;;;;8.77;4.85;;;;;;;22.49;21.73;99382.06;5092245;28;20028;-80
2022/03/27 00:34:03;;;;;;;6.93;4.68;;;;;;;20.79;22.82;99382.53;5091007;28;20122;-80
2022/03/27 00:36:29;;;;;;;8.10;4.35;;;;;;;20.16;23.78;99398.38;5090194;28;20032;-80
2022/03/27 00:38:55;;;;;;;8.48;4.65;;;;;;;19.53;24.78;99387.81;5098054;28;20059;-80
2022/03/27 00:41:24;;;;;;;7.97;5.57;;;;;;;17.90;26.60;99399.44;5089542;28;20111;-80
2022/03/27 00:43:50;;;;;;;7.32;4.85;;;;;;;18.05;26.51;99398.63;5083368;28;20036;-80
2022/03/27 00:46:16;;;;;;;8.27;4.95;;;;;;;19.87;23.88;99397.94;5091486;28;20035;-78
2022/03/27 00:48:43;;;;;;;8.05;5.10;;;;;;;20.53;22.70;99399.31;5090330;28;20089;-78
2022/03/27 00:51:09;;;;;;;9.15;4.43;;;;;;;22.56;20.46;99393.28;5094143;28;20379;-78
2022/03/27 00:53:35;;;;;;;6.60;4.15;;;;;;;23.28;19.42;99398.78;5086237;28;20032;-78
2022/03/27 00:56:01;;;;;;;8.82;4.22;;;;;;;22.31;20.39;99400.75;5093026;28;20023;-78
2022/03/27 00:58:27;;;;;;;8.20;4.03;;;;;;;22.55;20.18;99408.47;5087086;28;20028;-78
2022/03/27 01:01:18;;;;;;;7.28;3.78;;;;;;;21.35;21.52;99411.09;5090635;28;22073;-78
2022/03/27 01:03:47;;;;;;;5.70;3.47;;;;;;;21.41;20.39;99431.13;5094641;28;20054;-78
2022/03/27 01:06:34;;;;;;;6.93;3.55;;;;;;;18.64;21.93;99431.78;5094237;28;20081;-78
2022/03/27 01:11:48;;;;;;;5.05;2.40;;;;;;;19.85;19.52;99421.78;5092468;28;20066;-78
2022/03/27 01:14:22;;;;;;;4.68;2.78;;;;;;;18.86;21.15;99427.44;5093059;28;20404;-78
2022/03/27 01:16:59;;;;;;;2.72;1.90;;;;;;;19.73;20.24;99430.31;5088597;28;20483;-78
2022/03/27 01:19:27;;;;;;;6.28;3.55;;;;;;;18.56;21.93;99430.00;5089540;28;20028;-78
2022/03/27 01:21:53;;;;;;;5.28;3.05;;;;;;;18.69;21.84;99436.25;5085973;28;20496;-78
2022/03/27 01:24:19;;;;;;;5.43;3.05;;;;;;;18.10;22.33;99434.50;5091820;28;20031;-78
2022/03/27 01:26:46;;;;;;;4.82;3.03;;;;;;;17.09;23.55;99439.78;5090676;28;20044;-78
2022/03/27 01:29:13;;;;;;;4.68;2.97;;;;;;;17.22;23.23;99444.09;5092076;28;20024;-79
2022/03/27 01:31:39;;;;;;;6.70;3.22;;;;;;;16.44;23.98;99451.31;5094730;28;20496;-78
2022/03/27 01:34:06;;;;;;;8.13;3.40;;;;;;;16.04;24.34;99448.47;5075570;28;20453;-78
2022/03/27 01:36:34;;;;;;;5.30;3.03;;;;;;;15.43;25.20;99460.59;5092726;28;20032;-78
2022/03/27 01:39:06;;;;;;;7.28;3.10;;;;;;;16.82;23.44;99450.88;5093096;28;20122;-78
2022/03/27 01:41:32;;;;;;;10.73;3.58;;;;;;;17.53;22.37;99443.38;5091217;28;20032;-78
2022/03/27 01:44:02;;;;;;;7.43;3.40;;;;;;;17.06;22.76;99454.34;5090227;28;20035;-78
2022/03/27 01:46:37;;;;;;;8.50;3.03;;;;;;;15.56;24.29;99459.53;5085756;28;20067;-78
2022/03/27 01:49:05;;;;;;;4.72;2.78;;;;;;;15.21;24.72;99459.06;5087201;28;20440;-78
2022/03/27 01:51:33;;;;;;;5.05;2.33;;;;;;;14.90;24.81;99467.81;5085724;28;20477;-78
2022/03/27 01:54:00;;;;;;;5.57;2.40;;;;;;;14.71;24.88;99472.19;5090369;28;20024;-78
2022/03/27 01:56:26;;;;;;;4.93;2.58;;;;;;;14.33;24.98;99472.31;5087909;28;20079;-78
2022/03/27 01:58:52;;;;;;;5.18;1.88;;;;;;;14.36;25.08;99463.38;5090492;28;20016;-78
2022/03/27 02:01:19;;;;;;;4.38;1.98;;;;;;;14.95;24.43;99475.09;5087632;28;20036;-78
2022/03/27 02:03:46;;;;;;;14.05;2.67;;;;;;;15.06;23.81;99471.56;5093633;28;20023;-78
2022/03/27 02:06:13;;;;;;;3.38;1.63;;;;;;;15.23;23.73;99473.34;5093708;28;20032;-78
2022/03/27 02:08:40;;;;;;;5.50;1.70;;;;;;;15.27;23.49;99481.78;5093061;28;20032;-78
2022/03/27 02:11:07;;;;;;;4.50;1.85;;;;;;;14.66;24.11;99488.97;5094707;28;20034;-78
2022/03/27 02:13:33;;;;;;;5.05;1.70;;;;;;;14.51;23.74;99488.47;5087242;28;20036;-78
2022/03/27 02:16:00;;;;;;;4.68;1.40;;;;;;;14.37;23.95;99489.84;5091662;28;20090;-78
2022/03/27 02:18:28;;;;;;;3.47;1.30;;;;;;;14.99;23.01;99496.19;5088740;28;20034;-78
2022/03/27 02:20:54;;;;;;;3.47;1.25;;;;;;;14.68;22.97;99487.50;5090712;28;21155;-78
2022/03/27 02:23:22;;;;;;;6.68;1.13;;;;;;;14.44;23.10;99502.00;5087902;28;20020;-78
2022/03/27 02:25:49;;;;;;;3.00;1.00;;;;;;;13.96;23.86;99495.22;5090844;28;20024;-78
2022/03/27 02:28:15;;;;;;;3.35;1.15;;;;;;;13.99;23.76;99495.41;5089245;28;20048;-78
2022/03/27 02:30:42;;;;;;;3.33;1.20;;;;;;;13.93;23.96;99495.91;5088443;28;20080;-78
2022/03/27 02:33:09;;;;;;;6.43;1.00;;;;;;;14.36;23.05;99500.09;5083360;28;20035;-78
2022/03/27 02:35:36;;;;;;;3.05;1.08;;;;;;;13.63;23.88;99506.91;5092224;28;20559;-78
2022/03/27 02:38:06;;;;;;;4.88;1.10;;;;;;;13.56;23.99;99492.81;5093603;28;20028;-78
2022/03/27 02:40:37;;;;;;;3.53;1.05;;;;;;;14.05;23.46;99491.28;5089950;28;20148;-78
2022/03/27 02:43:04;;;;;;;3.40;1.30;;;;;;;13.50;23.98;99498.84;5091697;28;20027;-79
2022/03/27 02:45:32;;;;;;;4.05;1.00;;;;;;;13.34;24.40;99501.31;5092925;28;20050;-78
2022/03/27 02:47:59;;;;;;;2.85;0.93;;;;;;;13.39;24.41;99501.16;5091764;28;20028;-78
2022/03/27 02:50:26;;;;;;;4.43;1.02;;;;;;;13.40;24.16;99504.69;5093278;28;20031;-78
2022/03/27 02:52:53;;;;;;;3.28;1.20;;;;;;;13.30;24.29;99511.38;5091666;28;20035;-77
2022/03/27 02:55:20;;;;;;;3.92;1.60;;;;;;;12.87;24.88;99519.66;5092723;28;20031;-78
2022/03/27 02:57:47;;;;;;;3.83;1.20;;;;;;;12.77;24.81;99519.97;5088506;28;20040;-77
2022/03/27 03:00:14;;;;;;;5.60;1.40;;;;;;;12.64;25.07;99520.94;5088827;28;20094;-78
2022/03/27 03:02:40;;;;;;;3.75;1.17;;;;;;;13.41;24.33;99520.94;5087267;28;20032;-77
2022/03/27 03:05:07;;;;;;;2.10;1.00;;;;;;;13.03;24.67;99520.78;5087798;28;20132;-78
2022/03/27 03:07:33;;;;;;;3.25;1.40;;;;;;;13.70;23.50;99520.19;5088335;28;20396;-77
2022/03/27 03:10:02;;;;;;;6.05;1.00;;;;;;;13.91;23.20;99514.78;5087862;28;20028;-77
2022/03/27 03:12:29;;;;;;;1.98;0.80;;;;;;;14.85;22.07;99519.72;5085977;28;20056;-77
2022/03/27 03:14:56;;;;;;;4.13;1.00;;;;;;;18.19;18.42;99503.78;5091379;28;20048;-77
2022/03/27 03:17:23;;;;;;;2.75;0.75;;;;;;;20.86;15.91;99511.03;5082729;28;20476;-77
2022/03/27 03:19:53;;;;;;;1.67;0.70;;;;;;;22.18;14.66;99505.75;5092017;28;20394;-77
2022/03/27 03:22:19;;;;;;;2.15;0.65;;;;;;;23.20;13.80;99512.84;5087914;28;20062;-77
2022/03/27 03:24:46;;;;;;;3.47;1.05;;;;;;;23.86;12.97;99511.47;5089713;28;20066;-77
2022/03/27 03:27:12;;;;;;;4.85;1.35;;;;;;;24.14;12.78;99512.72;5087509;28;20029;-77
2022/03/27 03:29:39;;;;;;;1.27;0.80;;;;;;;24.26;12.43;99512.34;5067988;28;20091;-78
2022/03/27 03:32:05;;;;;;;3.38;0.95;;;;;;;24.35;12.29;99516.34;5083596;28;20029;-78
2022/03/27 03:34:31;;;;;;;6.75;0.70;;;;;;;24.22;12.55;99520.78;5087500;28;20040;-78
2022/03/27 03:36:58;;;;;;;2.60;0.75;;;;;;;24.38;12.48;99515.56;5086099;28;20071;-77
2022/03/27 03:39:25;;;;;;;1.80;0.68;;;;;;;24.23;12.47;99522.34;5083081;28;20162;-77
2022/03/27 03:41:51;;;;;;;3.40;0.77;;;;;;;24.24;12.39;99521.16;5087967;28;20054;-78
2022/03/27 03:44:17;;;;;;;1.48;0.70;;;;;;;24.28;12.31;99523.97;5092395;28;20432;-78
2022/03/27 03:46:44;;;;;;;3.13;0.60;;;;;;;24.01;12.52;99527.09;5093186;28;20438;-77
2022/03/27 03:49:10;;;;;;;1.08;0.50;;;;;;;23.81;12.55;99528.69;5089157;28;20024;-77
2022/03/27 03:51:37;;;;;;;1.80;0.50;;;;;;;23.39;12.83;99520.16;5088702;28;20043;-77
2022/03/27 03:54:07;;;;;;;1.25;0.50;;;;;;;23.61;12.64;99533.06;5089253;28;20054;-77
2022/03/27 03:56:34;;;;;;;0.68;0.47;;;;;;;23.66;12.54;99541.09;5092471;28;20023;-77
2022/03/27 03:59:00;;;;;;;6.35;0.80;;;;;;;23.76;12.52;99534.69;5085633;28;20058;-77
2022/03/27 04:01:26;;;;;;;2.97;0.70;;;;;;;23.49;12.66;99541.81;5083288;28;20032;-77
2022/03/27 04:03:52;;;;;;;1.73;0.60;;;;;;;23.51;12.56;99547.84;5086303;28;20032;-77
2022/03/27 04:06:19;;;;;;;2.63;1.00;;;;;;;23.35;12.81;99548.19;5087517;28;20391;-77
2022/03/27 04:08:46;;;;;;;3.08;0.60;;;;;;;23.31;12.89;99546.53;5089337;28;20475;-77
2022/03/27 04:11:16;;;;;;;3.35;0.80;;;;;;;23.44;12.97;99556.22;5066808;28;20080;-77
2022/03/27 04:13:45;;;;;;;2.35;0.60;;;;;;;23.41;12.83;99548.59;5088226;28;20052;-76
2022/03/27 04:16:14;;;;;;;2.55;0.50;;;;;;;23.32;12.75;99562.13;5086291;28;20089;-76
2022/03/27 04:18:41;;;;;;;2.30;0.60;;;;;;;23.23;12.62;99567.28;5088264;28;20040;-77
2022/03/27 04:21:07;;;;;;;0.77;0.50;;;;;;;23.12;12.75;99563.63;5084248;28;20054;-77
2022/03/27 04:23:34;;;;;;;2.95;0.65;;;;;;;23.20;12.69;99562.47;5088535;28;20032;-77
2022/03/27 04:26:00;;;;;;;4.47;0.65;;;;;;;22.96;13.05;99561.16;5091903;28;20035;-77
2022/03/27 04:28:26;;;;;;;1.30;0.57;;;;;;;22.80;12.92;99565.44;5086989;28;20043;-77
2022/03/27 04:30:52;;;;;;;3.42;0.70;;;;;;;22.48;13.40;99571.56;5072532;28;20497;-77
2022/03/27 04:33:18;;;;;;;2.78;0.70;;;;;;;22.27;13.65;99571.38;5081291;28;20028;-77
2022/03/27 04:35:45;;;;;;;1.88;0.60;;;;;;;22.25;13.47;99584.97;5087552;28;20040;-76
2022/03/27 04:38:11;;;;;;;1.13;0.43;;;;;;;22.68;13.11;99581.34;5086785;28;20035;-77
2022/03/27 04:40:38;;;;;;;1.60;0.60;;;;;;;22.67;13.32;99584.53;5087670;28;20168;-77
2022/03/27 04:43:05;;;;;;;2.80;0.60;;;;;;;23.03;13.12;99585.59;5086135;28;20028;-78
2022/03/27 04:45:32;;;;;;;2.03;0.55;;;;;;;23.03;12.80;99583.63;5081101;28;20031;-77
2022/03/27 04:47:58;;;;;;;2.70;0.50;;;;;;;22.92;12.89;99590.34;5083418;28;20502;-77
2022/03/27 04:50:24;;;;;;;2.55;0.60;;;;;;;23.27;12.50;99596.94;5087553;28;20033;-77
2022/03/27 04:52:50;;;;;;;1.58;0.57;;;;;;;23.54;12.48;99599.50;5088393;28;20488;-77
2022/03/27 04:55:16;;;;;;;2.55;0.50;;;;;;;23.63;12.69;99600.75;5083756;28;20044;-77
2022/03/27 04:57:43;;;;;;;1.17;0.70;;;;;;;23.51;12.89;99600.28;5087635;28;20029;-77
2022/03/27 05:00:14;;;;;;;2.63;1.27;;;;;;;23.84;12.57;99606.44;5082615;28;20039;-77
2022/03/27 05:02:42;;;;;;;1.08;0.50;;;;;;;24.11;12.10;99600.53;5080477;28;20059;-76
2022/03/27 05:05:10;;;;;;;0.90;0.50;;;;;;;23.80;12.34;99599.22;5085507;28;20035;-76
2022/03/27 05:07:41;;;;;;;1.60;0.70;;;;;;;24.00;12.28;99603.28;5086411;28;20036;-77
2022/03/27 05:10:08;;;;;;;0.80;0.50;;;;;;;24.07;12.21;99603.31;5083586;28;20035;-77
2022/03/27 05:12:35;;;;;;;3.15;0.70;;;;;;;23.69;12.63;99603.97;5087932;28;20476;-77
2022/03/27 05:15:01;;;;;;;2.70;0.75;;;;;;;23.56;12.95;99603.53;5085933;28;20075;-77
2022/03/27 05:17:27;;;;;;;1.45;0.60;;;;;;;23.89;12.58;99603.25;5088597;28;20032;-77
2022/03/27 05:19:53;;;;;;;2.55;0.50;;;;;;;24.20;12.44;99600.94;5089580;28;20038;-77
2022/03/27 05:22:19;;;;;;;1.23;0.50;;;;;;;24.50;12.43;99604.19;5085782;28;20027;-77
2022/03/27 05:24:46;;;;;;;0.85;0.55;;;;;;;23.96;12.89;99608.88;5087026;28;20074;-76
2022/03/27 05:27:16;;;;;;;3.38;0.85;;;;;;;23.49;12.94;99609.09;5082526;28;20035;-77
2022/03/27 05:29:42;;;;;;;1.58;0.60;;;;;;;23.38;12.99;99614.63;5083219;28;20032;-77
2022/03/27 05:32:08;;;;;;;2.28;0.90;;;;;;;23.40;13.02;99611.47;5080561;28;20475;-76
2022/03/27 05:34:35;;;;;;;2.03;0.70;;;;;;;24.05;12.95;99619.72;5087104;28;20056;-77
2022/03/27 05:37:03;;;;;;;1.98;0.70;;;;;;;24.46;12.39;99618.22;5089056;28;20032;-77
2022/03/27 05:39:29;;;;;;;3.83;0.88;;;;;;;24.85;12.36;99617.47;5090737;28;20024;-77
2022/03/27 05:41:55;;;;;;;2.42;1.15;;;;;;;25.29;12.30;99623.41;5092215;28;20454;-77
2022/03/27 05:44:21;;;;;;;2.33;1.10;;;;;;;24.97;13.29;99623.44;5089968;28;20032;-77
2022/03/27 05:46:47;;;;;;;1.77;0.93;;;;;;;24.65;13.49;99631.06;5090299;28;20036;-77
2022/03/27 05:49:13;;;;;;;0.98;0.60;;;;;;;24.42;13.47;99639.88;5089606;28;20107;-77
2022/03/27 05:51:40;;;;;;;3.08;0.70;;;;;;;24.39;13.57;99637.06;5090368;28;20047;-77
2022/03/27 05:54:06;;;;;;;2.33;0.70;;;;;;;24.49;13.57;99642.69;5090337;28;20038;-77
2022/03/27 05:56:32;;;;;;;3.22;0.88;;;;;;;24.60;13.53;99637.88;5075496;28;20070;-77
2022/03/27 05:58:58;;;;;;;2.33;0.77;;;;;;;25.00;13.31;99647.13;5089611;28;20107;-77
2022/03/27 06:01:24;;;;;;;2.90;0.80;;;;;;;25.12;13.30;99650.34;5093337;28;20454;-77
2022/03/27 06:03:50;;;;;;;4.75;0.77;;;;;;;25.42;13.09;99653.50;5091220;28;20044;-78
2022/03/27 06:06:16;;;;;;;1.63;0.85;;;;;;;25.48;12.95;99653.13;5091098;28;20078;-77
2022/03/27 06:08:43;;;;;;;1.13;0.70;;;;;;;25.46;12.92;99661.97;5091510;28;20360;-78
2022/03/27 06:11:09;;;;;;;3.70;0.80;;;;;;;25.71;12.36;99668.31;5088456;28;20027;-78
2022/03/27 06:13:35;;;;;;;3.17;0.80;;;;;;;26.14;11.87;99666.13;5090944;28;20047;-78
2022/03/27 06:16:01;;;;;;;4.03;1.00;;;;;;;26.02;12.42;99683.47;5091331;28;20523;-78
2022/03/27 06:18:27;;;;;;;2.33;0.80;;;;;;;26.00;12.45;99666.19;5093172;28;20036;-77
2022/03/27 06:20:53;;;;;;;3.65;0.95;;;;;;;26.59;12.01;99665.06;5087430;28;20032;-78
2022/03/27 06:23:19;;;;;;;2.75;1.10;;;;;;;27.17;11.90;99666.22;5093185;28;20056;-78
2022/03/27 06:25:46;;;;;;;4.68;1.25;;;;;;;27.53;11.58;99667.50;5090012;28;20039;-78
2022/03/27 06:28:12;;;;;;;6.65;2.10;;;;;;;27.90;11.45;99664.66;5091868;28;20028;-78
2022/03/27 06:30:38;;;;;;;5.38;1.77;;;;;;;28.05;10.99;99663.25;5083571;28;20039;-78
2022/03/27 06:33:04;;;;;;;2.75;1.20;;;;;;;27.95;10.74;99667.00;5094222;28;20072;-79
2022/03/27 06:35:31;;;;;;;7.40;1.70;;;;;;;27.55;11.40;99664.25;5089133;28;20053;-78
2022/03/27 06:37:57;;;;;;;3.50;1.67;;;;;;;27.72;11.27;99664.06;5089067;28;20119;-76
2022/03/27 06:40:24;;;;;;;2.92;1.40;;;;;;;27.72;11.11;99678.19;5091073;28;20028;-79
2022/03/27 06:42:50;;;;;;;3.95;1.70;;;;;;;27.94;11.44;99676.69;5075043;28;20077;-78
2022/03/27 06:45:18;;;;;;;3.30;1.40;;;;;;;28.22;10.82;99675.53;5090364;28;20517;-78
2022/03/27 06:47:45;;;;;;;3.70;1.02;;;;;;;28.27;10.94;99677.91;5092122;28;20032;-79
2022/03/27 06:50:13;;;;;;;4.07;0.85;;;;;;;28.40;10.16;99670.44;5088890;28;20145;-81
2022/03/27 06:52:40;;;;;;;7.18;1.10;;;;;;;28.48;9.98;99669.13;5069204;28;20032;-78
2022/03/27 06:55:08;;;;;;;2.20;1.00;;;;;;;28.57;10.23;99677.06;5090026;28;20142;-80
2022/03/27 06:57:37;;;;;;;1.83;0.80;;;;;;;28.61;9.97;99680.69;5091632;28;20035;-80
2022/03/27 07:03:02;;;;;;;2.40;0.88;;;;;;;28.58;10.24;99684.31;5089375;28;20477;-79
2022/03/27 07:05:39;;;;;;;1.58;0.70;;;;;;;26.81;10.07;99693.94;5089951;28;20043;-78
2022/03/27 07:08:11;;;;;;;2.20;1.27;;;;;;;24.58;12.64;99693.66;5089019;28;20028;-79
2022/03/27 07:10:38;;;;;;;2.03;0.88;;;;;;;24.61;11.66;99694.88;5092658;28;20094;-79
2022/03/27 07:13:09;;;;;;;4.97;0.90;;;;;;;24.34;12.13;99705.63;5086447;28;20085;-79
2022/03/27 07:15:36;;;;;;;;;;;;;;;25.49;10.54;99696.91;5090445;28;20040;-78
2022/03/27 07:18:03;;;;;;;1.63;0.80;;;;;;;25.93;10.71;99699.97;5091099;28;19947;-77
2022/03/27 07:20:31;;;;;;;4.30;0.55;;;;;;;25.48;10.68;99701.75;5084715;28;20036;-77
2022/03/27 07:23:00;;;;;;;1.88;0.80;;;;;;;25.91;10.94;99711.66;5088161;28;20050;-78
2022/03/27 07:25:28;;;;;;;1.85;0.60;;;;;;;24.81;11.31;99717.81;5093254;28;20420;-77
2022/03/27 07:27:55;;;;;;;2.20;0.80;;;;;;;24.91;11.47;99702.94;5090159;28;20043;-76
2022/03/27 07:30:21;;;;;;;4.57;0.75;;;;;;;23.73;11.64;99712.19;5088043;28;20071;-78
2022/03/27 07:32:48;;;;;;;2.15;0.60;;;;;;;24.08;11.01;99707.97;5087068;28;20028;-78
2022/03/27 07:35:15;;;;;;;2.10;0.50;;;;;;;23.60;11.82;99705.28;5091481;28;20079;-78
2022/03/27 07:37:43;;;;;;;4.85;0.60;;;;;;;24.27;11.55;99711.22;5091234;28;20058;-78
2022/03/27 07:40:10;;;;;;;1.30;0.52;;;;;;;25.55;10.56;99712.16;5092544;28;20145;-78
2022/03/27 07:42:39;;;;;;;2.15;0.63;;;;;;;22.41;12.33;99719.84;5069260;28;20097;-77
2022/03/27 07:45:06;;;;;;;0.82;0.40;;;;;;;22.71;11.86;99732.97;5083523;28;20093;-79
2022/03/27 07:47:32;;;;;;;2.88;0.50;;;;;;;23.04;12.12;99728.06;5082131;28;20086;-80
2022/03/27 07:49:59;;;;;;;0.88;0.30;;;;;;;23.69;10.48;99730.16;5090073;28;20028;-80
2022/03/27 07:52:27;;;;;;;1.08;0.45;;;;;;;24.03;10.94;99729.56;5093299;28;20487;-81
2022/03/27 07:54:53;;;;;;;1.58;0.40;;;;;;;24.49;11.13;99740.16;5094780;28;20032;-80
2022/03/27 07:57:20;;;;;;;1.60;0.50;;;;;;;24.54;11.89;99740.59;5089701;28;20042;-81
2022/03/27 07:59:47;;;;;;;1.17;0.40;;;;;;;23.10;11.15;99737.75;5093097;28;20025;-80
2022/03/27 08:02:14;;;;;;;1.02;0.30;;;;;;;22.69;11.45;99748.16;5076164;28;20546;-80
2022/03/27 08:04:40;;;;;;;0.75;0.38;;;;;;;21.27;12.06;99744.66;5093373;28;20019;-81
2022/03/27 08:07:06;;;;;;;0.77;0.40;;;;;;;20.90;13.45;99743.59;5093998;28;20036;-81
2022/03/27 08:09:32;;;;;;;1.75;0.40;;;;;;;23.34;10.62;99739.13;5091855;28;20465;-80
2022/03/27 08:11:59;;;;;;;3.08;0.20;;;;;;;25.13;9.80;99736.28;5092062;28;20110;-80
2022/03/27 08:14:28;;;;;;;1.00;0.45;;;;;;;22.02;13.14;99749.34;5075942;28;20127;-81
2022/03/27 08:16:55;;;;;;;1.15;0.50;;;;;;;22.02;11.74;99752.97;5094008;28;20039;-80
2022/03/27 08:19:21;;;;;;;2.45;0.38;;;;;;;21.03;12.52;99745.00;5094475;28;20028;-80
2022/03/27 08:21:47;;;;;;;3.22;0.60;;;;;;;19.99;13.23;99750.97;5093366;28;20036;-80
2022/03/27 08:24:13;;;;;;;1.20;0.43;;;;;;;22.39;12.04;99757.78;5094135;28;20047;-81
2022/03/27 08:26:59;;;;;;;0.93;0.40;;;;;;;21.91;12.24;99748.41;5074114;28;20440;-80
2022/03/27 08:29:39;;;;;;;0.90;0.45;;;;;;;22.17;12.36;99742.72;5093815;28;20047;-80
2022/03/27 08:32:08;;;;;;;1.70;0.45;;;;;;;19.93;13.34;99744.88;5094221;28;20020;-80
2022/03/27 08:34:36;;;;;;;0.52;0.30;;;;;;;22.74;11.08;99744.22;5088512;28;20032;-80
2022/03/27 08:37:05;;;;;;;1.00;0.40;;;;;;;25.28;9.91;99732.25;5093528;28;20036;-80
2022/03/27 08:39:32;;;;;;;0.80;0.32;;;;;;;25.41;9.46;99735.47;5086758;28;20024;-80
2022/03/27 08:41:59;;;;;;;1.33;0.40;;;;;;;25.49;9.81;99725.81;5092699;28;20028;-80
2022/03/27 08:44:27;;;;;;;1.10;0.40;;;;;;;24.11;10.44;99730.41;5093522;28;20040;-80
2022/03/27 08:46:55;;;;;;;0.95;0.35;;;;;;;25.06;10.20;99725.03;5094041;28;20036;-81
2022/03/27 08:49:32;;;;;;;1.52;0.30;;;;;;;25.24;9.48;99723.03;5093581;28;20069;-81
2022/03/27 08:52:09;;;;;;;2.63;0.40;;;;;;;25.85;9.11;99718.13;5093552;28;20042;-80
2022/03/27 08:54:43;;;;;;;1.55;0.45;;;;;;;25.90;9.48;99720.50;5088830;28;20036;-80
2022/03/27 08:57:37;;;;;;;1.85;0.45;;;;;;;25.63;9.72;99708.13;5090407;28;20463;-79
2022/03/27 09:00:05;;;;;;;0.55;0.30;;;;;;;24.85;9.40;99707.38;5091199;28;20031;-79
2022/03/27 09:02:31;;;;;;;0.80;0.50;;;;;;;19.88;12.40;99724.84;5075331;28;20430;-79
2022/03/27 09:04:59;;;;;;;1.65;0.32;;;;;;;18.27;12.93;99700.19;5089612;28;20032;-79
2022/03/27 09:07:27;;;;;;;1.75;0.60;;;;;;;18.18;13.41;99719.00;5093835;28;20020;-79
2022/03/27 09:09:55;;;;;;;0.95;0.35;;;;;;;22.15;10.10;99711.53;5074398;28;20383;-80
2022/03/27 09:12:21;;;;;;;1.00;0.30;;;;;;;23.98;8.67;99706.69;5091298;28;20032;-79
2022/03/27 09:14:48;;;;;;;0.52;0.28;;;;;;;25.20;8.93;99696.94;5076769;28;20044;-79
2022/03/27 09:17:15;;;;;;;1.67;0.55;;;;;;;26.44;8.35;99702.97;5093060;28;20532;-80
2022/03/27 09:19:49;;;;;;;0.68;0.30;;;;;;;23.67;8.94;99698.91;5093600;28;20060;-80
2022/03/27 09:22:21;;;;;;;0.30;0.17;;;;;;;23.38;9.06;99695.16;5092867;28;20387;-79
2022/03/27 09:24:56;;;;;;;0.30;0.20;;;;;;;25.49;8.63;99685.66;5091252;28;20032;-79
2022/03/27 09:27:30;;;;;;;0.30;0.30;;;;;;;24.66;7.55;99700.91;5091523;28;20411;-80
2022/03/27 09:30:06;;;;;;;0.40;0.13;;;;;;;22.88;8.62;99687.50;5080737;28;20062;-79
2022/03/27 09:32:35;;;;;;;0.10;0.10;;;;;;;25.25;8.24;99673.22;5083228;28;20043;-80
2022/03/27 09:35:14;;;;;;;1.02;0.20;;;;;;;24.62;7.73;99679.63;5092975;28;20046;-80
2022/03/27 09:37:45;;;;;;;0.22;0.20;;;;;;;24.16;8.46;99676.72;5093434;28;20111;-80
2022/03/27 09:40:12;;;;;;;0.73;0.10;;;;;;;24.35;7.46;99678.38;5092704;28;20077;-80
2022/03/27 09:42:40;;;;;;;0.10;0.10;;;;;;;25.97;7.20;99675.47;5087623;28;20043;-80
2022/03/27 09:45:16;;;;;;;0.30;0.25;;;;;;;27.35;6.89;99666.88;5078712;28;20077;-79
2022/03/27 09:47:48;;;;;;;1.33;0.20;;;;;;;28.38;6.38;99666.47;5090748;28;20043;-80
2022/03/27 09:50:33;;;;;;;0.30;0.10;;;;;;;28.55;6.53;99680.31;5092276;28;20040;-81
2022/03/27 09:53:22;;;;;;;4.47;0.17;;;;;;;28.70;6.52;99680.94;5087266;28;20024;-80
2022/03/27 09:56:13;;;;;;;0.52;0.20;;;;;;;28.63;6.00;99672.56;5083264;28;20067;-81
2022/03/27 09:58:45;;;;;;;0.80;0.40;;;;;;;26.82;6.97;99683.44;5067817;28;20033;-81
2022/03/27 10:01:18;;;;;;;0.75;0.20;;;;;;;24.34;8.19;99690.81;5086978;28;20036;-80
2022/03/27 10:04:07;;;;;;;0.30;0.10;;;;;;;21.23;8.84;99695.50;5087738;28;20024;-81
2022/03/27 10:06:37;;;;;;;1.10;0.20;;;;;;;22.10;9.03;99699.91;5086304;28;20028;-81
2022/03/27 10:09:09;;;;;;;0.77;0.25;;;;;;;21.26;9.48;99689.94;5089234;28;20024;-82
2022/03/27 10:11:37;;;;;;;1.23;0.20;;;;;;;21.02;10.40;99675.56;5088424;28;20036;-81
2022/03/27 10:14:04;;;;;;;0.20;0.10;;;;;;;20.99;10.00;99684.69;5087081;28;20079;-83
2022/03/27 10:16:34;;;;;;;0.65;0.20;;;;;;;20.20;10.78;99680.88;5082960;28;20119;-82
2022/03/27 10:19:04;;;;;;;0.28;0.20;;;;;;;19.70;11.07;99681.84;5087984;28;20383;-80
2022/03/27 10:21:33;;;;;;;0.60;0.20;;;;;;;20.35;10.75;99682.81;5085840;28;20028;-81
2022/03/27 10:24:13;;;;;;;0.52;0.20;;;;;;;22.31;9.36;99674.97;5089641;28;20427;-80
2022/03/27 10:26:43;;;;;;;0.40;0.20;;;;;;;23.46;8.24;99665.13;5091213;28;20039;-81
2022/03/27 10:29:10;;;;;;;;;;;;;;;24.58;7.68;99661.94;5089736;28;20024;-80
2022/03/27 10:31:38;;;;;;;2.00;0.30;;;;;;;25.76;6.76;99664.28;5086911;28;19916;-80
2022/03/27 10:34:05;;;;;;;2.38;0.22;;;;;;;26.47;7.25;99661.91;5089254;28;20081;-81
2022/03/27 10:36:36;;;;;;;1.67;0.30;;;;;;;23.49;8.82;99651.16;5091183;28;20119;-80
2022/03/27 10:39:25;;;;;;;0.47;0.40;;;;;;;23.87;7.84;99649.72;5090102;28;20039;-79
2022/03/27 10:42:17;;;;;;;0.50;0.20;;;;;;;23.22;8.96;99647.75;5085884;28;20040;-81
2022/03/27 10:45:00;;;;;;;0.30;0.20;;;;;;;21.00;9.85;99663.97;5079180;28;20050;-81
2022/03/27 10:47:29;;;;;;;1.05;0.13;;;;;;;21.87;9.25;99663.66;5079578;28;20036;-78
2022/03/27 10:50:01;;;;;;;2.08;0.60;;;;;;;24.35;8.24;99648.28;5085558;28;20031;-78
2022/03/27 10:52:30;;;;;;;0.10;0.10;;;;;;;26.71;7.19;99642.03;5084132;28;20507;-78
2022/03/27 10:54:58;;;;;;;0.75;0.40;;;;;;;25.25;7.92;99639.50;5084255;28;20035;-77
2022/03/27 10:57:31;;;;;;;1.08;0.22;;;;;;;21.69;9.72;99643.03;5080974;28;20036;-78
2022/03/27 10:59:58;;;;;;;0.73;0.30;;;;;;;20.76;11.25;99642.84;5078106;28;20032;-78
2022/03/27 11:02:46;;;;;;;0.40;0.20;;;;;;;20.32;11.09;99642.50;5076608;28;20031;-78
2022/03/27 11:05:36;;;;;;;1.85;0.40;;;;;;;20.96;10.35;99641.56;5079632;28;21589;-78
2022/03/27 11:08:18;;;;;;;0.50;0.22;;;;;;;21.54;9.63;99625.25;5079885;28;20056;-77
2022/03/27 11:10:52;;;;;;;1.08;0.30;;;;;;;21.96;9.58;99631.41;5085136;28;20111;-78
2022/03/27 11:13:27;;;;;;;0.60;0.40;;;;;;;22.41;9.44;99610.69;5084608;28;20085;-78
2022/03/27 11:16:13;;;;;;;1.35;0.30;;;;;;;22.91;8.97;99611.94;5067523;28;20376;-78
2022/03/27 11:18:49;;;;;;;2.25;0.20;;;;;;;21.73;9.38;99615.91;5082688;28;20039;-78
2022/03/27 11:21:38;;;;;;;0.73;0.20;;;;;;;24.69;7.86;99603.81;5080485;28;20034;-78
2022/03/27 11:24:04;;;;;;;0.20;0.20;;;;;;;25.98;7.63;99598.22;5078897;28;20483;-78
2022/03/27 11:26:32;;;;;;;1.05;0.40;;;;;;;25.06;8.12;99592.16;5077851;28;20039;-78
2022/03/27 11:29:04;;;;;;;1.13;0.35;;;;;;;21.75;9.61;99602.38;5084694;28;20507;-78
2022/03/27 11:31:33;;;;;;;0.35;0.17;;;;;;;20.58;10.58;99597.91;5082562;28;20507;-78
2022/03/27 11:34:05;;;;;;;1.63;0.50;;;;;;;21.14;10.04;99589.59;5084098;28;20089;-78
2022/03/27 11:36:33;;;;;;;2.00;0.30;;;;;;;20.53;10.66;99587.06;5085722;28;20032;-78
2022/03/27 11:39:08;;;;;;;1.38;0.40;;;;;;;21.09;10.39;99589.16;5084412;28;20035;-78
2022/03/27 11:41:48;;;;;;;1.83;0.30;;;;;;;23.66;8.79;99579.53;5080745;28;20054;-78
2022/03/27 11:47:34;;;;;;;0.60;0.30;;;;;;;26.57;7.33;99559.63;5087549;28;20043;-78
2022/03/27 11:50:00;;;;;;;0.43;0.30;;;;;;;27.23;6.73;99552.56;5086169;28;20167;-78
2022/03/27 11:52:26;;;;;;;1.80;0.73;;;;;;;27.53;7.26;99546.19;5085654;28;20036;-78